Time;durP1;ratioP1;P1;durP2;ratioP2;P2;SDS_P1;SDS_P2;PMS_P1;PMS_P2;Temp;Humidity;BMP_temperature;BMP_pressure;BME280_temperature;BME280_humidity;BME280_pressure;Samples;Min_cycle;Max_cycle;Signal;HPM_P1;HPM_P2
2021/06/01 00:01:18;;;;;;;;;;;;;;;;;;5032373;28;19932;-68
2021/06/01 00:03:45;;;;;;;;;;;;;;;;;;5032651;28;19925;-66
2021/06/01 00:06:11;;;;;;;;;;;;;;;;;;5032353;28;19929;-68
2021/06/01 00:08:38;;;;;;;;;;;;;;;;;;5030990;28;20007;-67
2021/06/01 00:11:04;;;;;;;;;;;;;;;;;;5032324;28;19932;-67
2021/06/01 00:13:30;;;;;;;;;;;;;;;;;;5032198;28;20297;-68
2021/06/01 00:15:57;;;;;;;;;;;;;;;;;;5031815;28;19937;-67
2021/06/01 00:18:23;;;;;;;;;;;;;;;;;;5032148;28;19925;-68
2021/06/01 00:20:50;;;;;;;;;;;;;;;;;;5031504;28;19925;-67
2021/06/01 00:23:16;;;;;;;;;;;;;;;;;;5033868;28;19935;-67
2021/06/01 00:25:43;;;;;;;;;;;;;;;;;;5038144;28;20011;-66
2021/06/01 00:28:09;;;;;;;;;;;;;;;;;;5032382;28;19925;-67
2021/06/01 00:30:35;;;;;;;;;;;;;;;;;;5031583;28;19925;-67
2021/06/01 00:33:02;;;;;;;;;;;;;;;;;;5032045;28;19925;-67
2021/06/01 00:35:28;;;;;;;;;;;;;;;;;;5032527;28;20404;-66
2021/06/01 00:37:55;;;;;;;;;;;;;;;;;;5032101;28;19979;-66
2021/06/01 00:40:21;;;;;;;;;;;;;;;;;;5031376;28;19939;-66
2021/06/01 00:42:48;;;;;;;;;;;;;;;;;;5032016;28;19936;-65
2021/06/01 00:45:18;;;;;;;;;;;;;;;;;;5031825;28;19975;-66
2021/06/01 00:47:44;;;;;;;;;;;;;;;;;;5031912;28;20297;-66
2021/06/01 00:50:11;;;;;;;;;;;;;;;;;;5031449;28;19929;-66
2021/06/01 00:52:37;;;;;;;;;;;;;;;;;;5031627;28;20027;-66
2021/06/01 00:55:04;;;;;;;;;;;;;;;;;;5031980;28;20324;-67
2021/06/01 00:57:30;;;;;;;;;;;;;;;;;;5030121;28;19932;-67
2021/06/01 00:59:57;;;;;;;;;;;;;;;;;;5031436;28;19925;-68
2021/06/01 01:02:23;;;;;;;;;;;;;;;;;;5031396;28;19925;-67
2021/06/01 01:04:50;;;;;;;;;;;;;;;;;;5031566;28;19925;-67
2021/06/01 01:07:17;;;;;;;;;;;;;;;;;;5031931;28;20268;-68
2021/06/01 01:09:44;;;;;;;;;;;;;;;;;;5030758;28;19925;-67
2021/06/01 01:12:10;;;;;;;;;;;;;;;;;;5030831;28;20393;-67
2021/06/01 01:14:37;;;;;;;;;;;;;;;;;;5031604;28;19931;-67
2021/06/01 01:17:03;;;;;;;;;;;;;;;;;;5031749;28;19925;-66
2021/06/01 01:19:30;;;;;;;;;;;;;;;;;;5031223;28;19925;-66
2021/06/01 01:21:56;;;;;;;;;;;;;;;;;;5031531;28;20212;-67
2021/06/01 01:24:23;;;;;;;;;;;;;;;;;;5038708;28;19933;-67
2021/06/01 01:26:51;;;;;;;;;;;;;;;;;;5030319;28;19932;-66
2021/06/01 01:29:18;;;;;;;;;;;;;;;;;;5030550;28;19925;-67
2021/06/01 01:31:45;;;;;;;;;;;;;;;;;;5031524;28;19929;-67
2021/06/01 01:34:11;;;;;;;;;;;;;;;;;;5030854;28;20324;-68
2021/06/01 01:36:37;;;;;;;;;;;;;;;;;;5031297;28;19933;-68
2021/06/01 01:39:04;;;;;;;;;;;;;;;;;;5030865;28;19931;-67
2021/06/01 01:41:30;;;;;;;;;;;;;;;;;;5027459;28;19932;-68
2021/06/01 01:43:57;;;;;;;;;;;;;;;;;;5030502;28;19925;-68
2021/06/01 01:46:32;;;;;;;;;;;;;;;;;;5031210;28;20027;-68
2021/06/01 01:48:59;;;;;;;;;;;;;;;;;;5030922;28;19925;-67
2021/06/01 01:51:26;;;;;;;;;;;;;;;;;;5030521;28;19929;-68
2021/06/01 01:53:52;;;;;;;;;;;;;;;;;;5018251;28;19925;-67
2021/06/01 01:56:20;;;;;;;;;;;;;;;;;;5036768;28;19925;-68
2021/06/01 01:58:46;;;;;;;;;;;;;;;;;;5034784;28;20376;-66
2021/06/01 02:01:13;;;;;;;;;;;;;;;;;;5033995;28;19932;-67
2021/06/01 02:03:39;;;;;;;;;;;;;;;;;;5030947;28;19929;-66
2021/06/01 02:06:06;;;;;;;;;;;;;;;;;;5030928;28;19925;-67
2021/06/01 02:08:34;;;;;;;;;;;;;;;;;;5033655;28;19951;-67
2021/06/01 02:11:03;;;;;;;;;;;;;;;;;;5031176;28;19929;-67
2021/06/01 02:13:31;;;;;;;;;;;;;;;;;;5029847;28;19932;-66
2021/06/01 02:15:57;;;;;;;;;;;;;;;;;;5030769;28;20296;-66
2021/06/01 02:18:24;;;;;;;;;;;;;;;;;;5030561;28;19933;-65
2021/06/01 02:20:53;;;;;;;;;;;;;;;;;;5030228;28;20343;-68
2021/06/01 02:26:04;;;;;;;;;;;;;;;;;;5044611;28;20087;-66
2021/06/01 02:28:30;;;;;;;;;;;;;;;;;;5030877;28;19935;-67
2021/06/01 02:30:57;;;;;;;;;;;;;;;;;;5030182;28;20409;-67
2021/06/01 02:33:24;;;;;;;;;;;;;;;;;;5030283;28;19925;-67
2021/06/01 02:35:50;;;;;;;;;;;;;;;;;;5030654;28;19932;-67
2021/06/01 02:38:17;;;;;;;;;;;;;;;;;;5032065;28;19929;-67
2021/06/01 02:40:44;;;;;;;;;;;;;;;;;;5033666;28;19925;-67
2021/06/01 02:43:10;;;;;;;;;;;;;;;;;;5034571;28;19925;-67
2021/06/01 02:45:37;;;;;;;;;;;;;;;;;;5033476;28;20339;-67
2021/06/01 02:48:03;;;;;;;;;;;;;;;;;;5034463;28;19979;-67
2021/06/01 02:50:30;;;;;;;;;;;;;;;;;;5033471;28;20347;-67
2021/06/01 02:52:56;;;;;;;;;;;;;;;;;;5033682;28;19925;-66
2021/06/01 02:55:23;;;;;;;;;;;;;;;;;;5034065;28;19947;-66
2021/06/01 02:57:49;;;;;;;;;;;;;;;;;;5033863;28;19925;-66
2021/06/01 03:00:16;;;;;;;;;;;;;;;;;;5069998;22;19934;-65
2021/06/01 03:02:42;;;;;;;;;;;;;;;;;;5073628;28;19987;-65
2021/06/01 03:05:09;;;;;;;;;;;;;;;;;;5071643;28;20330;-65
2021/06/01 03:07:35;;;;;;;;;;;;;;;;;;5057949;28;19924;-64
2021/06/01 03:10:01;;;;;;;;;;;;;;;;;;5050674;28;19932;-65
2021/06/01 03:12:38;;;;;;;;;;;;;;;;;;5053763;28;19969;-64
2021/06/01 03:15:05;;;;;;;;;;;;;;;;;;5050948;28;20289;-65
2021/06/01 03:17:31;;;;;;;;;;;;;;;;;;5050749;28;19925;-65
2021/06/01 03:19:57;;;;;;;;;;;;;;;;;;5048166;28;19925;-65
2021/06/01 03:22:24;;;;;;;;;;;;;;;;;;5051798;28;19948;-65
2021/06/01 03:24:50;;;;;;;;;;;;;;;;;;5067923;28;19932;-65
2021/06/01 03:27:17;;;;;;;;;;;;;;;;;;5053205;28;19929;-65
2021/06/01 03:29:43;;;;;;;;;;;;;;;;;;5053198;28;20360;-65
2021/06/01 03:32:10;;;;;;;;;;;;;;;;;;5053369;28;19925;-65
2021/06/01 03:34:36;;;;;;;;;;;;;;;;;;5053046;28;19931;-65
2021/06/01 03:37:03;;;;;;;;;;;;;;;;;;5046192;28;19929;-65
2021/06/01 03:39:31;;;;;;;;;;;;;;;;;;5052871;28;19925;-67
2021/06/01 03:41:58;;;;;;;;;;;;;;;;;;5053506;28;20247;-65
2021/06/01 03:44:24;;;;;;;;;;;;;;;;;;5053042;28;19929;-65
2021/06/01 03:46:51;;;;;;;;;;;;;;;;;;5043873;28;19925;-65
2021/06/01 03:49:17;;;;;;;;;;;;;;;;;;5037178;28;19970;-65
2021/06/01 03:51:44;;;;;;;;;;;;;;;;;;5052234;28;19929;-65
2021/06/01 03:54:10;;;;;;;;;;;;;;;;;;5052409;28;20317;-65
2021/06/01 03:56:37;;;;;;;;;;;;;;;;;;5050444;28;19928;-65
2021/06/01 03:59:03;;;;;;;;;;;;;;;;;;5052021;28;19960;-66
2021/06/01 04:01:30;;;;;;;;;;;;;;;;;;5051923;28;19931;-65
2021/06/01 04:03:56;;;;;;;;;;;;;;;;;;5052157;28;20019;-65
2021/06/01 04:06:23;;;;;;;;;;;;;;;;;;5052153;28;20416;-65
2021/06/01 04:08:49;;;;;;;;;;;;;;;;;;5052379;28;19925;-65
2021/06/01 04:11:15;;;;;;;;;;;;;;;;;;5051088;28;19928;-65
2021/06/01 04:13:42;;;;;;;;;;;;;;;;;;5051942;28;20320;-65
2021/06/01 04:16:08;;;;;;;;;;;;;;;;;;5049452;28;19971;-65
2021/06/01 04:18:35;;;;;;;;;;;;;;;;;;5050325;28;19925;-64
2021/06/01 04:21:01;;;;;;;;;;;;;;;;;;5051805;28;19954;-65
2021/06/01 04:23:28;;;;;;;;;;;;;;;;;;5051746;28;19939;-65
2021/06/01 04:25:54;;;;;;;;;;;;;;;;;;5052175;28;19925;-65
2021/06/01 04:28:21;;;;;;;;;;;;;;;;;;5051957;28;20293;-64
2021/06/01 04:30:47;;;;;;;;;;;;;;;;;;5050842;28;19931;-64
2021/06/01 04:33:14;;;;;;;;;;;;;;;;;;5051087;28;20023;-64
2021/06/01 04:35:40;;;;;;;;;;;;;;;;;;5048326;28;19925;-65
2021/06/01 04:38:07;;;;;;;;;;;;;;;;;;5051676;28;19970;-65
2021/06/01 04:40:33;;;;;;;;;;;;;;;;;;5050854;28;19929;-65
2021/06/01 04:43:00;;;;;;;;;;;;;;;;;;5051545;28;20019;-64
2021/06/01 04:45:26;;;;;;;;;;;;;;;;;;5042429;28;19978;-64
2021/06/01 04:47:53;;;;;;;;;;;;;;;;;;5051721;28;20285;-65
2021/06/01 04:50:19;;;;;;;;;;;;;;;;;;5051015;28;20385;-64
2021/06/01 04:52:47;;;;;;;;;;;;;;;;;;5051399;28;19928;-64
2021/06/01 04:55:13;;;;;;;;;;;;;;;;;;5048548;28;19925;-65
2021/06/01 04:57:40;;;;;;;;;;;;;;;;;;5051502;28;19933;-65
2021/06/01 05:00:06;;;;;;;;;;;;;;;;;;5051113;28;19929;-64
2021/06/01 05:02:33;;;;;;;;;;;;;;;;;;5051652;28;19978;-65
2021/06/01 05:05:00;;;;;;;;;;;;;;;;;;5051148;28;19925;-65
2021/06/01 05:07:26;;;;;;;;;;;;;;;;;;5051021;28;20327;-65
2021/06/01 05:09:59;;;;;;;;;;;;;;;;;;5048352;28;19977;-64
2021/06/01 05:12:25;;;;;;;;;;;;;;;;;;5050480;28;19933;-64
2021/06/01 05:14:52;;;;;;;;;;;;;;;;;;5050805;28;19932;-65
2021/06/01 05:17:18;;;;;;;;;;;;;;;;;;5048727;28;19960;-65
2021/06/01 05:19:45;;;;;;;;;;;;;;;;;;5050803;28;19924;-66
2021/06/01 05:22:12;;;;;;;;;;;;;;;;;;5052151;28;20368;-65
2021/06/01 05:24:38;;;;;;;;;;;;;;;;;;5051131;28;19925;-66
2021/06/01 05:27:05;;;;;;;;;;;;;;;;;;5049306;28;19929;-65
2021/06/01 05:29:33;;;;;;;;;;;;;;;;;;5045770;28;19929;-65
2021/06/01 05:32:05;;;;;;;;;;;;;;;;;;5047689;28;20094;-66
2021/06/01 05:34:31;;;;;;;;;;;;;;;;;;5045705;28;19972;-65
2021/06/01 05:36:58;;;;;;;;;;;;;;;;;;5049436;28;19971;-66
2021/06/01 05:39:24;;;;;;;;;;;;;;;;;;5047218;28;19935;-67
2021/06/01 05:41:51;;;;;;;;;;;;;;;;;;5044747;28;20418;-66
2021/06/01 05:44:17;;;;;;;;;;;;;;;;;;5050062;28;20423;-66
2021/06/01 05:46:44;;;;;;;;;;;;;;;;;;5049160;28;19925;-66
2021/06/01 05:49:10;;;;;;;;;;;;;;;;;;5047768;28;19931;-66
2021/06/01 05:51:37;;;;;;;;;;;;;;;;;;5045951;28;19931;-66
2021/06/01 05:54:03;;;;;;;;;;;;;;;;;;5045882;28;19931;-66
2021/06/01 05:56:29;;;;;;;;;;;;;;;;;;5044634;28;19929;-66
2021/06/01 05:58:56;;;;;;;;;;;;;;;;;;5048219;28;20274;-66
2021/06/01 06:01:22;;;;;;;;;;;;;;;;;;5043323;28;19925;-66
2021/06/01 06:03:49;;;;;;;;;;;;;;;;;;5049485;28;19932;-65
2021/06/01 06:06:15;;;;;;;;;;;;;;;;;;5046923;28;19929;-66
2021/06/01 06:08:42;;;;;;;;;;;;;;;;;;5049648;28;19932;-66
2021/06/01 06:11:08;;;;;;;;;;;;;;;;;;5050502;28;19929;-66
2021/06/01 06:13:35;;;;;;;;;;;;;;;;;;5050800;28;19929;-66
2021/06/01 06:16:02;;;;;;;;;;;;;;;;;;5049130;28;19925;-66
2021/06/01 06:18:28;;;;;;;;;;;;;;;;;;5045586;28;19925;-66
2021/06/01 06:20:55;;;;;;;;;;;;;;;;;;5046987;28;19964;-66
2021/06/01 06:23:21;;;;;;;;;;;;;;;;;;5047388;28;19948;-66
2021/06/01 06:25:48;;;;;;;;;;;;;;;;;;5050144;28;19932;-66
2021/06/01 06:28:14;;;;;;;;;;;;;;;;;;5049406;28;19936;-66
2021/06/01 06:30:41;;;;;;;;;;;;;;;;;;5047533;28;19925;-65
2021/06/01 06:33:07;;;;;;;;;;;;;;;;;;5046683;28;19925;-65
2021/06/01 06:35:34;;;;;;;;;;;;;;;;;;5050016;28;20446;-66
2021/06/01 06:38:00;;;;;;;;;;;;;;;;;;5042198;28;19924;-65
2021/06/01 06:40:27;;;;;;;;;;;;;;;;;;5047652;28;20389;-64
2021/06/01 06:42:53;;;;;;;;;;;;;;;;;;5047033;28;19925;-64
2021/06/01 06:45:19;;;;;;;;;;;;;;;;;;5048519;28;20059;-65
2021/06/01 06:47:57;;;;;;;;;;;;;;;;;;5048114;28;20415;-67
2021/06/01 06:50:24;;;;;;;;;;;;;;;;;;5049259;28;20511;-66
2021/06/01 06:52:50;;;;;;;;;;;;;;;;;;5045433;28;19931;-66
2021/06/01 06:55:17;;;;;;;;;;;;;;;;;;5048771;28;19937;-66
2021/06/01 06:57:43;;;;;;;;;;;;;;;;;;5049568;28;19931;-65
2021/06/01 07:00:10;;;;;;;;;;;;;;;;;;5041911;28;19940;-72
2021/06/01 07:02:36;;;;;;;;;;;;;;;;;;5044717;28;20402;-66
2021/06/01 07:05:03;;;;;;;;;;;;;;;;;;5047393;28;19931;-66
2021/06/01 07:07:29;;;;;;;;;;;;;;;;;;5046595;28;19932;-66
2021/06/01 07:09:56;;;;;;;;;;;;;;;;;;5045762;28;19928;-64
2021/06/01 07:12:22;;;;;;;;;;;;;;;;;;5045943;28;20319;-65
2021/06/01 07:14:49;;;;;;;;;;;;;;;;;;5042643;28;20012;-66
2021/06/01 07:17:15;;;;;;;;;;;;;;;;;;5044128;28;20336;-67
2021/06/01 07:19:43;;;;;;;;;;;;;;;;;;5041703;28;19925;-67
2021/06/01 07:22:09;;;;;;;;;;;;;;;;;;5044044;28;20396;-67
2021/06/01 07:24:36;;;;;;;;;;;;;;;;;;5041777;28;20193;-66
2021/06/01 07:27:02;;;;;;;;;;;;;;;;;;5042340;28;19925;-66
2021/06/01 07:29:29;;;;;;;;;;;;;;;;;;5044105;28;19925;-66
2021/06/01 07:31:55;;;;;;;;;;;;;;;;;;5043993;28;19933;-66
2021/06/01 07:34:22;;;;;;;;;;;;;;;;;;5046090;28;20425;-65
2021/06/01 07:36:48;;;;;;;;;;;;;;;;;;5047696;28;19967;-65
2021/06/01 07:39:15;;;;;;;;;;;;;;;;;;5046033;28;20320;-65
2021/06/01 07:41:41;;;;;;;;;;;;;;;;;;5044222;28;19971;-65
2021/06/01 07:44:08;;;;;;;;;;;;;;;;;;5042176;28;20407;-65
2021/06/01 07:46:34;;;;;;;;;;;;;;;;;;5046682;28;19924;-65
2021/06/01 07:49:01;;;;;;;;;;;;;;;;;;5045965;28;19933;-65
2021/06/01 07:51:31;;;;;;;;;;;;;;;;;;5046897;28;19936;-65
2021/06/01 07:53:58;;;;;;;;;;;;;;;;;;5047931;28;20460;-66
2021/06/01 07:56:24;;;;;;;;;;;;;;;;;;5043031;28;20416;-65
2021/06/01 07:58:50;;;;;;;;;;;;;;;;;;5040501;28;20365;-66
2021/06/01 08:01:17;;;;;;;;;;;;;;;;;;5041680;28;19936;-66
2021/06/01 08:03:43;;;;;;;;;;;;;;;;;;5044999;28;19935;-65
2021/06/01 08:06:10;;;;;;;;;;;;;;;;;;5045573;28;20373;-66
2021/06/01 08:08:36;;;;;;;;;;;;;;;;;;5043108;28;19925;-66
2021/06/01 08:11:03;;;;;;;;;;;;;;;;;;5043104;28;20457;-66
2021/06/01 08:13:29;;;;;;;;;;;;;;;;;;5044838;28;19928;-66
2021/06/01 08:15:56;;;;;;;;;;;;;;;;;;5044882;28;20042;-66
2021/06/01 08:18:24;;;;;;;;;;;;;;;;;;5043223;28;20257;-66
2021/06/01 08:20:58;;;;;;;;;;;;;;;;;;5041862;28;19932;-66
2021/06/01 08:23:24;;;;;;;;;;;;;;;;;;5045015;28;19928;-66
2021/06/01 08:25:51;;;;;;;;;;;;;;;;;;5048197;28;19924;-65
2021/06/01 08:28:17;;;;;;;;;;;;;;;;;;5044786;28;19929;-66
2021/06/01 08:30:44;;;;;;;;;;;;;;;;;;5043787;28;19998;-66
2021/06/01 08:33:10;;;;;;;;;;;;;;;;;;5041098;28;19924;-65
2021/06/01 08:35:37;;;;;;;;;;;;;;;;;;5042813;28;19947;-66
2021/06/01 08:38:03;;;;;;;;;;;;;;;;;;5043417;28;19994;-66
2021/06/01 08:40:29;;;;;;;;;;;;;;;;;;5043222;28;20270;-66
2021/06/01 08:42:56;;;;;;;;;;;;;;;;;;5045154;28;20377;-66
2021/06/01 08:45:22;;;;;;;;;;;;;;;;;;5043922;28;19924;-65
2021/06/01 08:47:49;;;;;;;;;;;;;;;;;;5043176;28;19931;-66
2021/06/01 08:50:16;;;;;;;;;;;;;;;;;;5046171;28;20375;-68
2021/06/01 08:52:42;;;;;;;;;;;;;;;;;;5043731;28;20304;-67
2021/06/01 08:55:09;;;;;;;;;;;;;;;;;;5045591;28;19928;-65
2021/06/01 08:57:35;;;;;;;;;;;;;;;;;;5042492;28;19925;-66
2021/06/01 09:00:02;;;;;;;;;;;;;;;;;;5042081;28;19924;-66
2021/06/01 09:02:28;;;;;;;;;;;;;;;;;;5044602;28;20342;-67
2021/06/01 09:04:56;;;;;;;;;;;;;;;;;;5044333;28;19932;-67
2021/06/01 09:07:30;;;;;;;;;;;;;;;;;;5043647;28;19925;-67
2021/06/01 09:10:00;;;;;;;;;;;;;;;;;;5042776;28;19939;-66
2021/06/01 09:12:32;;;;;;;;;;;;;;;;;;5041616;28;20298;-66
2021/06/01 09:15:16;;;;;;;;;;;;;;;;;;5039313;28;19931;-67
2021/06/01 09:23:14;;;;;;;;;;;;;;;;;;5045267;28;19925;-66
2021/06/01 09:25:43;;;;;;;;;;;;;;;;;;5045707;28;20019;-66
2021/06/01 09:28:09;;;;;;;;;;;;;;;;;;5041277;28;19964;-67
2021/06/01 09:30:36;;;;;;;;;;;;;;;;;;5046390;28;20090;-66
2021/06/01 09:33:02;;;;;;;;;;;;;;;;;;5041714;28;20378;-66
2021/06/01 09:35:29;;;;;;;;;;;;;;;;;;5045502;28;20058;-67
2021/06/01 09:37:55;;;;;;;;;;;;;;;;;;5043255;28;19933;-66
2021/06/01 09:40:22;;;;;;;;;;;;;;;;;;5043683;28;19925;-68
2021/06/01 09:42:48;;;;;;;;;;;;;;;;;;5043139;28;20393;-67
2021/06/01 09:45:16;;;;;;;;;;;;;;;;;;5046518;28;19929;-66
2021/06/01 09:47:42;;;;;;;;;;;;;;;;;;5045931;28;19925;-69
2021/06/01 09:50:12;;;;;;;;;;;;;;;;;;5049755;28;20012;-66
2021/06/01 09:52:39;;;;;;;;;;;;;;;;;;5049313;28;19925;-67
2021/06/01 09:55:05;;;;;;;;;;;;;;;;;;5047670;28;19998;-66
2021/06/01 09:57:32;;;;;;;;;;;;;;;;;;5046146;28;19925;-65
2021/06/01 09:59:58;;;;;;;;;;;;;;;;;;5046724;28;20285;-69
2021/06/01 10:02:25;;;;;;;;;;;;;;;;;;5047975;28;19925;-67
2021/06/01 10:04:51;;;;;;;;;;;;;;;;;;5047627;28;20011;-64
2021/06/01 10:07:18;;;;;;;;;;;;;;;;;;5048989;28;19924;-65
2021/06/01 10:09:44;;;;;;;;;;;;;;;;;;5048233;28;20033;-67
2021/06/01 10:12:11;;;;;;;;;;;;;;;;;;5047956;28;19931;-67
2021/06/01 10:14:37;;;;;;;;;;;;;;;;;;5047524;28;19935;-67
2021/06/01 10:17:04;;;;;;;;;;;;;;;;;;5046823;28;19925;-67
2021/06/01 10:19:30;;;;;;;;;;;;;;;;;;5049466;28;19925;-68
2021/06/01 10:21:57;;;;;;;;;;;;;;;;;;5047621;28;19924;-66
2021/06/01 10:24:23;;;;;;;;;;;;;;;;;;5047615;28;19933;-67
2021/06/01 10:26:56;;;;;;;;;;;;;;;;;;5046956;28;20749;-66
2021/06/01 10:29:23;;;;;;;;;;;;;;;;;;5045041;28;20400;-66
2021/06/01 10:31:49;;;;;;;;;;;;;;;;;;5048326;28;19970;-66
2021/06/01 10:34:16;;;;;;;;;;;;;;;;;;5049147;28;20060;-66
2021/06/01 10:50:36;;;;;;;;;;;;;;;;;;5046630;28;20292;-66
2021/06/01 10:53:03;;;;;;;;;;;;;;;;;;5048022;28;19935;-65
2021/06/01 10:55:29;;;;;;;;;;;;;;;;;;5046502;28;19925;-64
2021/06/01 10:57:56;;;;;;;;;;;;;;;;;;5044926;28;20033;-65
2021/06/01 11:03:24;;;;;;;;;;;;;;;;;;5019126;28;20448;-66
2021/06/01 11:05:50;;;;;;;;;;;;;;;;;;5018795;28;20318;-68
2021/06/01 11:08:17;;;;;;;;;;;;;;;;;;5030737;28;19932;-66
2021/06/01 11:10:43;;;;;;;;;;;;;;;;;;5044808;28;19932;-67
2021/06/01 11:13:10;;;;;;;;;;;;;;;;;;5047464;28;20031;-66
2021/06/01 11:15:36;;;;;;;;;;;;;;;;;;5048027;28;19947;-66
2021/06/01 11:18:03;;;;;;;;;;;;;;;;;;5039749;28;19925;-68
2021/06/01 11:20:37;;;;;;;;;;;;;;;;;;5046580;28;19924;-66
2021/06/01 11:23:12;;;;;;;;;;;;;;;;;;5044713;28;19925;-67
2021/06/01 11:33:52;;;;;;;;;;;;;;;;;;5042437;28;19928;-68
2021/06/01 11:36:20;;;;;;;;;;;;;;;;;;5043543;28;19925;-66
2021/06/01 11:38:48;;;;;;;;;;;;;;;;;;5042726;28;19933;-66
2021/06/01 11:43:49;;;;;;;;;;;;;;;;;;5044069;28;19927;-68
2021/06/01 11:46:23;;;;;;;;;;;;;;;;;;5047393;28;20007;-66
2021/06/01 11:51:35;;;;;;;;;;;;;;;;;;5044471;28;19920;-67
2021/06/01 11:54:02;;;;;;;;;;;;;;;;;;5043974;28;19971;-66
2021/06/01 11:56:29;;;;;;;;;;;;;;;;;;5043377;28;19924;-65
2021/06/01 12:04:24;;;;;;;;;;;;;;;;;;5042378;28;20386;-67
2021/06/01 12:12:26;;;;;;;;;;;;;;;;;;5029785;28;19920;-66
2021/06/01 12:17:37;;;;;;;;;;;;;;;;;;5046381;28;19919;-67
2021/06/01 12:20:04;;;;;;;;;;;;;;;;;;5045169;28;19932;-66
2021/06/01 12:22:30;;;;;;;;;;;;;;;;;;5038922;28;19925;-68
2021/06/01 12:24:57;;;;;;;;;;;;;;;;;;5043809;28;20031;-66
2021/06/01 12:27:27;;;;;;;;;;;;;;;;;;5044477;28;19931;-67
2021/06/01 12:32:46;;;;;;;;;;;;;;;;;;5010897;28;19922;-66
2021/06/01 12:35:23;;;;;;;;;;;;;;;;;;5046774;28;19935;-66
2021/06/01 12:43:26;;;;;;;;;;;;;;;;;;5049134;28;20050;-66
2021/06/01 13:14:08;;;;;;;;;;;;;;;;;;5046964;28;19991;-66
2021/06/01 13:19:26;;;;;;;;;;;;;;;;;;5037346;28;20047;-67
2021/06/01 13:21:56;;;;;;;;;;;;;;;;;;5047952;28;19925;-65
2021/06/01 13:30:12;;;;;;;;;;;;;;;;;;5053351;28;19925;-66
2021/06/01 13:30:26;;;;;;;;;;;;;;;;;;5049523;28;19982;-68
2021/06/01 13:36:23;;;;;;;;;;;;;;;;;;5049176;28;19924;-67
2021/06/01 13:38:30;;;;;;;;;;;;;;;;;;5050128;28;20446;-68
2021/06/01 13:45:58;;;;;;;;;;;;;;;;;;5047874;28;19929;-67
2021/06/01 13:46:29;;;;;;;;;;;;;;;;;;5050130;28;19919;-68
2021/06/01 13:49:04;;;;;;;;;;;;;;;;;;5049898;28;19974;-66
2021/06/01 13:57:13;;;;;;;;;;;;;;;;;;5049052;28;19959;-68
2021/06/01 13:59:49;;;;;;;;;;;;;;;;;;5047984;28;20217;-67
2021/06/01 14:11:00;;;;;;;;;;;;;;;;;;5048411;28;19967;-68
2021/06/01 14:21:53;;;;;;;;;;;;;;;;;;5047337;28;19959;-66
2021/06/01 14:29:55;;;;;;;;;;;;;;;;;;5048592;28;19982;-67
2021/06/01 15:30:28;;;;;;;;;;;;;;;;;;5046206;28;19915;-68
2021/06/01 15:49:23;;;;;;;;;;;;;;;;;;5044669;28;19923;-67
2021/06/01 15:52:07;;;;;;;;;;;;;;;;;;5047471;28;20411;-68
2021/06/01 16:14:07;;;;;;;;;;;;;;;;;;5006843;28;20292;-68
2021/06/01 16:22:20;;;;;;;;;;;;;;;;;;5048896;28;19920;-71
2021/06/01 16:30:20;;;;;;;;;;;;;;;;;;5015340;28;19925;-67
2021/06/01 16:43:53;;;;;;;;;;;;;;;;;;5048180;28;19920;-69
2021/06/01 17:05:37;;;;;;;;;;;;;;;;;;5045055;28;19920;-70
2021/06/01 17:08:18;;;;;;;;;;;;;;;;;;5045110;28;19925;-70
2021/06/01 17:11:03;;;;;;;;;;;;;;;;;;5044850;28;20395;-69
2021/06/01 17:13:29;;;;;;;;;;;;;;;;;;5043211;28;19921;-69
2021/06/01 17:15:56;;;;;;;;;;;;;;;;;;5043116;28;20308;-71
2021/06/01 17:18:36;;;;;;;;;;;;;;;;;;5046705;28;20487;-71
2021/06/01 17:23:55;;;;;;;;;;;;;;;;;;5034158;28;19925;-69
2021/06/01 17:32:14;;;;;;;;;;;;;;;;;;5041860;28;19920;-71
2021/06/01 17:34:47;;;;;;;;;;;;;;;;;;5042290;28;20421;-70
2021/06/01 17:37:14;;;;;;;;;;;;;;;;;;5043394;28;19975;-71
2021/06/01 17:39:40;;;;;;;;;;;;;;;;;;5045849;28;20385;-70
2021/06/01 17:42:07;;;;;;;;;;;;;;;;;;5043358;28;20266;-69
2021/06/01 17:44:33;;;;;;;;;;;;;;;;;;5044524;28;20370;-70
2021/06/01 17:47:00;;;;;;;;;;;;;;;;;;5043246;28;20312;-69
2021/06/01 17:49:27;;;;;;;;;;;;;;;;;;5046054;28;20418;-71
2021/06/01 17:51:53;;;;;;;;;;;;;;;;;;5047497;28;19929;-70
2021/06/01 17:54:20;;;;;;;;;;;;;;;;;;5045947;28;20397;-70
2021/06/01 17:56:48;;;;;;;;;;;;;;;;;;5042915;28;19979;-71
2021/06/01 17:59:14;;;;;;;;;;;;;;;;;;5044290;28;20074;-71
2021/06/01 18:01:41;;;;;;;;;;;;;;;;;;5044111;28;20320;-71
2021/06/01 18:04:09;;;;;;;;;;;;;;;;;;5044122;28;19925;-69
2021/06/01 18:06:38;;;;;;;;;;;;;;;;;;5044791;28;19925;-70
2021/06/01 18:09:11;;;;;;;;;;;;;;;;;;5046338;28;20020;-71
2021/06/01 18:11:51;;;;;;;;;;;;;;;;;;5046777;28;19932;-71
2021/06/01 19:25:52;;;;;;;;;;;;;;;;;;5048975;28;19958;-69
2021/06/01 19:28:42;;;;;;;;;;;;;;;;;;5047155;28;19972;-70
2021/06/01 19:50:48;;;;;;;;;;;;;;;;;;5002023;28;19928;-69
2021/06/01 19:53:15;;;;;;;;;;;;;;;;;;5006452;28;19929;-69
2021/06/01 19:55:41;;;;;;;;;;;;;;;;;;5019804;28;20007;-69
2021/06/01 19:58:08;;;;;;;;;;;;;;;;;;5046606;28;19925;-69
2021/06/01 20:00:34;;;;;;;;;;;;;;;;;;5043049;28;20016;-69
2021/06/01 20:03:01;;;;;;;;;;;;;;;;;;5048647;28;19925;-70
2021/06/01 20:05:27;;;;;;;;;;;;;;;;;;5046808;28;19932;-70
2021/06/01 20:07:54;;;;;;;;;;;;;;;;;;5047698;28;19940;-70
2021/06/01 20:10:20;;;;;;;;;;;;;;;;;;5042825;28;19929;-69
2021/06/01 20:12:47;;;;;;;;;;;;;;;;;;5047361;28;19924;-70
2021/06/01 20:15:16;;;;;;;;;;;;;;;;;;5043851;28;20019;-69
2021/06/01 20:17:42;;;;;;;;;;;;;;;;;;5045575;28;19929;-66
2021/06/01 20:20:09;;;;;;;;;;;;;;;;;;5046008;28;19929;-67
2021/06/01 20:22:35;;;;;;;;;;;;;;;;;;5045564;28;19940;-66
2021/06/01 20:25:02;;;;;;;;;;;;;;;;;;5047556;28;19932;-67
2021/06/01 20:27:28;;;;;;;;;;;;;;;;;;5047188;28;20015;-66
2021/06/01 20:29:57;;;;;;;;;;;;;;;;;;5045079;28;19932;-68
2021/06/01 20:35:08;;;;;;;;;;;;;;;;;;5040910;28;19963;-66
2021/06/01 20:37:35;;;;;;;;;;;;;;;;;;5046826;28;19932;-67
2021/06/01 20:40:01;;;;;;;;;;;;;;;;;;5043834;28;20010;-66
2021/06/01 20:42:28;;;;;;;;;;;;;;;;;;5047375;28;20104;-67
2021/06/01 20:44:54;;;;;;;;;;;;;;;;;;5045433;28;20016;-65
2021/06/01 20:47:21;;;;;;;;;;;;;;;;;;5046282;28;20456;-66
2021/06/01 20:49:47;;;;;;;;;;;;;;;;;;5046538;28;19939;-67
2021/06/01 20:52:14;;;;;;;;;;;;;;;;;;5041742;28;19929;-66
2021/06/01 20:54:40;;;;;;;;;;;;;;;;;;5043805;28;19964;-66
2021/06/01 20:57:07;;;;;;;;;;;;;;;;;;5045237;28;19935;-66
2021/06/01 21:02:12;;;;;;;;;;;;;;;;;;5074204;28;19924;-67
2021/06/01 21:04:39;;;;;;;;;;;;;;;;;;5076719;28;19964;-67
2021/06/01 21:07:05;;;;;;;;;;;;;;;;;;5079096;28;19924;-71
2021/06/01 21:09:32;;;;;;;;;;;;;;;;;;5076798;28;20022;-67
2021/06/01 21:11:58;;;;;;;;;;;;;;;;;;5075704;28;19924;-66
2021/06/01 21:14:25;;;;;;;;;;;;;;;;;;5072649;28;19925;-67
2021/06/01 21:16:51;;;;;;;;;;;;;;;;;;5068580;28;20296;-66
2021/06/01 21:19:18;;;;;;;;;;;;;;;;;;5058236;28;19924;-66
2021/06/01 21:21:44;;;;;;;;;;;;;;;;;;5056009;28;19925;-67
2021/06/01 21:24:11;;;;;;;;;;;;;;;;;;5060972;28;20320;-67
2021/06/01 21:26:37;;;;;;;;;;;;;;;;;;5058466;28;19928;-68
2021/06/01 21:29:06;;;;;;;;;;;;;;;;;;5053924;28;19931;-67
2021/06/01 21:31:32;;;;;;;;;;;;;;;;;;5051299;28;20015;-67
2021/06/01 21:33:59;;;;;;;;;;;;;;;;;;5062489;28;19924;-66
2021/06/01 21:36:25;;;;;;;;;;;;;;;;;;5056555;28;19925;-67
2021/06/01 21:38:52;;;;;;;;;;;;;;;;;;5056279;28;19971;-67
2021/06/01 21:41:19;;;;;;;;;;;;;;;;;;5052372;28;20364;-66
2021/06/01 21:43:45;;;;;;;;;;;;;;;;;;5051475;28;19929;-66
2021/06/01 21:46:12;;;;;;;;;;;;;;;;;;5057158;28;19988;-66
2021/06/01 21:48:38;;;;;;;;;;;;;;;;;;5053077;28;19925;-67
2021/06/01 21:51:05;;;;;;;;;;;;;;;;;;5052414;28;19925;-65
2021/06/01 21:53:31;;;;;;;;;;;;;;;;;;5075159;28;19971;-66
2021/06/01 21:55:58;;;;;;;;;;;;;;;;;;5065945;28;19925;-67
2021/06/01 21:58:24;;;;;;;;;;;;;;;;;;5054762;28;19956;-68
2021/06/01 22:00:51;;;;;;;;;;;;;;;;;;5054300;28;19968;-66
2021/06/01 22:03:17;;;;;;;;;;;;;;;;;;5066507;28;19974;-65
2021/06/01 22:05:44;;;;;;;;;;;;;;;;;;5061921;28;19975;-66
2021/06/01 22:08:11;;;;;;;;;;;;;;;;;;5070032;28;19960;-66
2021/06/01 22:10:37;;;;;;;;;;;;;;;;;;5060959;28;20299;-68
2021/06/01 22:13:04;;;;;;;;;;;;;;;;;;5071718;28;19924;-67
2021/06/01 22:15:30;;;;;;;;;;;;;;;;;;5064505;28;19932;-65
2021/06/01 22:17:57;;;;;;;;;;;;;;;;;;5057052;28;20023;-66
2021/06/01 22:20:23;;;;;;;;;;;;;;;;;;5063671;28;19946;-67
2021/06/01 22:22:50;;;;;;;;;;;;;;;;;;5066322;28;20077;-67
2021/06/01 22:25:16;;;;;;;;;;;;;;;;;;5066673;28;19976;-67
2021/06/01 22:27:43;;;;;;;;;;;;;;;;;;5058467;28;20380;-65
2021/06/01 22:30:09;;;;;;;;;;;;;;;;;;5061427;28;19932;-67
2021/06/01 22:32:36;;;;;;;;;;;;;;;;;;5061450;28;20085;-67
2021/06/01 22:35:02;;;;;;;;;;;;;;;;;;5052477;28;19925;-66
2021/06/01 22:37:29;;;;;;;;;;;;;;;;;;5058555;28;20041;-65
2021/06/01 22:39:55;;;;;;;;;;;;;;;;;;5063698;28;19970;-65
2021/06/01 22:42:22;;;;;;;;;;;;;;;;;;5062575;28;20389;-65
2021/06/01 22:44:48;;;;;;;;;;;;;;;;;;5066563;28;19969;-67
2021/06/01 22:47:14;;;;;;;;;;;;;;;;;;5067637;28;20407;-66
2021/06/01 22:49:41;;;;;;;;;;;;;;;;;;5064323;28;19935;-65
2021/06/01 22:52:07;;;;;;;;;;;;;;;;;;5070204;28;20429;-65
2021/06/01 22:54:34;;;;;;;;;;;;;;;;;;5059726;28;19924;-66
2021/06/01 22:57:00;;;;;;;;;;;;;;;;;;5055569;28;19971;-65